Impacts TAF Board
For situational awareness. Not to be used for flight planning purposes.
IDs:

KLAS - Las Vegas/McCarran I, NV, US

Issued at 1739 UTC 20 Sep 2018
Updated at 2034 UTC 20 Sep 2018
Potential Impact None Slight Moderate High
Time<<21/09Z 21/10Z 21/11Z 21/12Z 21/13Z 21/14Z 21/15Z 21/16Z 21/17Z 21/18Z 21/19Z 21/20Z 21/21Z>>
Type PRVL PRVL PRVL PRVL PRVL PRVL PRVL PRVL PRVL PRVL PRVL PRVL PRVL
VIS >6 >6 >6 >6 >6 >6 >6 >6 >6 >6 >6 >6 >6
CIG -- -- -- -- -- -- -- -- -- -- -- -- --
Cover SKC SKC SKC SKC SKC SKC SKC SKC SKC SKC SKC SKC SKC
FltCat VFR VFR VFR VFR VFR VFR VFR VFR VFR VFR VFR VFR VFR
WX -- -- -- -- -- -- -- -- -- -- -- -- --
WDir VRB VRB VRB VRB VRB VRB VRB VRB VRB 40 40 40 40
WSpd 5 5 5 5 5 5 5 5 5 6 6 6 6
WGst -- -- -- -- -- -- -- -- -- -- -- -- --
Raw TAF
KLAS 201739Z 2018/2124 05006KT P6SM FEW120
  FM202000 09007KT P6SM FEW120
  FM210300 20007KT P6SM SKC
  FM210700 VRB05KT P6SM SKC
  FM211800 04006KT P6SM SKC


METAR Board
Radar Display
Forecast Discussion
For situational awareness. Not to be used for flight planning purposes.